Time;durP1;ratioP1;P1;durP2;ratioP2;P2;SDS_P1;SDS_P2;PMS_P1;PMS_P2;Temp;Humidity;BMP_temperature;BMP_pressure;BME280_temperature;BME280_humidity;BME280_pressure;Samples;Min_cycle;Max_cycle;Signal;HPM_P1;HPM_P2
2023/10/08 00:01:03;;;;;;;0.50;0.35;;;13.30;1.00;;;;;;5034912;28;20049;-79
2023/10/08 00:03:29;;;;;;;0.70;0.65;;;13.30;1.00;;;;;;5045372;28;20036;-80
2023/10/08 00:05:55;;;;;;;0.80;0.40;;;13.20;1.00;;;;;;5042613;28;20028;-80
2023/10/08 00:08:21;;;;;;;3.25;0.75;;;13.30;1.00;;;;;;5023026;28;20037;-80
2023/10/08 00:10:47;;;;;;;3.90;0.85;;;13.20;1.00;;;;;;5023304;28;20128;-80
2023/10/08 00:13:16;;;;;;;0.95;0.65;;;13.20;1.00;;;;;;5039199;28;20505;-80
2023/10/08 00:15:52;;;;;;;1.20;0.57;;;13.30;1.00;;;;;;5050026;28;20049;-79
2023/10/08 00:18:25;;;;;;;0.60;0.45;;;13.30;1.00;;;;;;5048915;28;20053;-80
2023/10/08 00:23:35;;;;;;;1.23;0.50;;;13.20;1.00;;;;;;5049703;28;20550;-80
2023/10/08 00:26:04;;;;;;;1.00;0.50;;;13.20;1.00;;;;;;5031427;28;20045;-80
2023/10/08 00:28:33;;;;;;;2.08;1.20;;;13.20;1.50;;;;;;5037119;28;20071;-79
2023/10/08 00:31:11;;;;;;;1.00;0.50;;;13.20;4.80;;;;;;5039632;28;20040;-80
2023/10/08 00:33:37;;;;;;;0.70;0.40;;;13.20;7.90;;;;;;5049217;28;20044;-80
2023/10/08 00:36:17;;;;;;;1.27;0.70;;;13.10;9.70;;;;;;5029019;28;20481;-80
2023/10/08 00:38:59;;;;;;;2.72;1.30;;;13.10;9.80;;;;;;5053219;28;20041;-80
2023/10/08 00:41:28;;;;;;;2.28;1.05;;;13.10;10.40;;;;;;5025285;28;20103;-80
2023/10/08 00:43:59;;;;;;;2.00;1.35;;;13.10;11.10;;;;;;5057968;28;20037;-79
2023/10/08 00:46:30;;;;;;;2.80;1.65;;;13.10;13.70;;;;;;5040408;28;20033;-80
2023/10/08 00:48:58;;;;;;;4.68;1.58;;;13.10;14.00;;;;;;5015732;28;20044;-79
2023/10/08 00:51:32;;;;;;;3.00;1.50;;;13.00;16.40;;;;;;5039391;28;20115;-80
2023/10/08 00:54:07;;;;;;;2.90;1.40;;;13.00;19.80;;;;;;5038801;28;20143;-79
2023/10/08 00:56:46;;;;;;;2.28;1.10;;;13.00;22.10;;;;;;5043262;28;20464;-79
2023/10/08 00:59:14;;;;;;;1.52;0.90;;;12.90;23.70;;;;;;5051859;28;20049;-79
2023/10/08 01:01:39;;;;;;;1.52;0.70;;;12.90;23.80;;;;;;5025804;28;20115;-80
2023/10/08 01:04:11;;;;;;;2.53;0.60;;;12.80;25.20;;;;;;5047798;28;20502;-80
2023/10/08 01:06:39;;;;;;;0.80;0.57;;;12.80;25.80;;;;;;5059943;28;20048;-80
2023/10/08 01:09:18;;;;;;;1.65;0.70;;;12.80;28.50;;;;;;5021636;28;20040;-79
2023/10/08 01:11:49;;;;;;;2.17;0.52;;;12.80;32.00;;;;;;5032938;28;20529;-80
2023/10/08 01:14:20;;;;;;;2.28;0.70;;;12.80;35.60;;;;;;5048117;28;20056;-79
2023/10/08 01:16:47;;;;;;;2.28;0.60;;;12.80;36.70;;;;;;5033682;28;20071;-80
2023/10/08 01:19:19;;;;;;;0.77;0.57;;;12.80;39.00;;;;;;5024544;28;20474;-79
2023/10/08 01:21:48;;;;;;;2.03;0.60;;;12.70;47.20;;;;;;5031223;28;20036;-79
2023/10/08 01:24:17;;;;;;;0.50;0.30;;;12.80;49.10;;;;;;5022785;28;20041;-79
2023/10/08 01:26:43;;;;;;;1.50;0.40;;;12.80;53.70;;;;;;5024760;28;20041;-79
2023/10/08 01:29:19;;;;;;;1.17;0.40;;;12.80;56.80;;;;;;5027931;28;20036;-79
2023/10/08 01:31:46;;;;;;;1.83;0.57;;;12.80;62.30;;;;;;5045500;28;20354;-79
2023/10/08 01:34:16;;;;;;;1.08;0.45;;;12.80;67.60;;;;;;5040520;28;20048;-79
2023/10/08 01:36:45;;;;;;;3.33;0.40;;;12.80;68.50;;;;;;5038831;28;20411;-79
2023/10/08 01:39:16;;;;;;;1.60;0.30;;;12.80;68.20;;;;;;5037163;28;20084;-79
2023/10/08 01:41:46;;;;;;;1.45;0.30;;;12.80;69.70;;;;;;5047963;28;20045;-79
2023/10/08 01:44:12;;;;;;;1.15;0.32;;;12.70;80.80;;;;;;5037300;28;20042;-79
2023/10/08 01:46:40;;;;;;;0.70;0.32;;;12.70;79.50;;;;;;5021747;28;20664;-79
2023/10/08 01:49:21;;;;;;;2.30;0.30;;;12.70;85.20;;;;;;5053665;28;20040;-79
2023/10/08 01:51:47;;;;;;;0.60;0.30;;;12.80;87.70;;;;;;5021424;28;20120;-79
2023/10/08 01:54:14;;;;;;;0.85;0.30;;;12.70;91.00;;;;;;5044843;28;20207;-79
2023/10/08 01:56:41;;;;;;;1.65;0.38;;;12.70;92.70;;;;;;5032344;28;20510;-79
2023/10/08 01:59:13;;;;;;;1.60;0.60;;;12.70;94.50;;;;;;5029156;28;20040;-80
2023/10/08 02:01:40;;;;;;;0.93;0.40;;;12.70;95.50;;;;;;5021529;28;20803;-79
2023/10/08 02:04:11;;;;;;;0.65;0.40;;;12.70;95.50;;;;;;5022589;28;20622;-79
2023/10/08 02:06:39;;;;;;;2.83;0.55;;;12.70;97.70;;;;;;5045497;28;20108;-79
2023/10/08 02:09:09;;;;;;;2.65;0.50;;;12.80;99.90;;;;;;5019818;28;20049;-79
2023/10/08 02:11:53;;;;;;;2.25;0.80;;;12.80;99.90;;;;;;5055421;28;20049;-79
2023/10/08 02:14:20;;;;;;;2.33;0.95;;;12.80;99.90;;;;;;5032295;28;20504;-79
2023/10/08 02:16:47;;;;;;;2.50;0.90;;;12.80;99.90;;;;;;5026926;28;20040;-79
2023/10/08 02:19:13;;;;;;;2.05;1.30;;;12.70;99.90;;;;;;5032810;28;20049;-79
2023/10/08 02:21:40;;;;;;;3.42;0.90;;;12.70;99.90;;;;;;5048288;28;20037;-78
2023/10/08 02:24:11;;;;;;;3.60;1.13;;;12.70;99.90;;;;;;5045548;28;20459;-79
2023/10/08 02:26:37;;;;;;;2.67;1.10;;;12.70;99.90;;;;;;5058964;28;20056;-80
2023/10/08 02:29:10;;;;;;;2.67;0.68;;;12.70;99.90;;;;;;5038001;28;20718;-79
2023/10/08 02:31:38;;;;;;;3.10;1.13;;;12.70;99.90;;;;;;5047672;28;20040;-79
2023/10/08 02:34:07;;;;;;;4.00;1.00;;;12.70;99.90;;;;;;5034438;28;20166;-79
2023/10/08 02:36:40;;;;;;;3.47;0.90;;;12.70;99.90;;;;;;5045073;28;20521;-80
2023/10/08 02:39:13;;;;;;;1.98;1.00;;;12.70;99.90;;;;;;5046340;28;20041;-79
2023/10/08 02:41:45;;;;;;;3.58;1.23;;;12.70;99.90;;;;;;5045103;28;20091;-79
2023/10/08 02:44:14;;;;;;;2.58;1.10;;;12.70;99.90;;;;;;5028759;28;20121;-79
2023/10/08 02:46:48;;;;;;;2.75;1.20;;;12.60;99.90;;;;;;5036907;28;20037;-79
2023/10/08 02:49:22;;;;;;;1.67;0.90;;;12.70;99.90;;;;;;5046122;28;20040;-79
2023/10/08 02:51:53;;;;;;;1.58;1.00;;;12.70;99.90;;;;;;5025372;28;20072;-80
2023/10/08 02:54:23;;;;;;;4.32;1.20;;;12.80;99.90;;;;;;5029220;28;20412;-80
2023/10/08 02:56:52;;;;;;;4.90;1.42;;;12.70;99.90;;;;;;5046289;28;20041;-79
2023/10/08 02:59:21;;;;;;;3.72;1.20;;;12.70;99.90;;;;;;5044866;28;20037;-80
2023/10/08 03:01:49;;;;;;;2.92;1.20;;;12.80;99.90;;;;;;5049491;28;20120;-79
2023/10/08 03:04:18;;;;;;;4.75;1.75;;;12.70;99.90;;;;;;5034935;28;20044;-80
2023/10/08 03:06:57;;;;;;;4.50;1.00;;;12.80;99.90;;;;;;5027892;28;20045;-80
2023/10/08 03:09:31;;;;;;;2.70;1.08;;;12.70;99.90;;;;;;5057813;28;20424;-80
2023/10/08 03:11:58;;;;;;;1.50;1.00;;;12.70;99.90;;;;;;5041423;28;20156;-79
2023/10/08 03:14:26;;;;;;;1.23;0.93;;;12.70;99.90;;;;;;5042638;28;20049;-79
2023/10/08 03:16:54;;;;;;;3.05;2.05;;;12.80;99.90;;;;;;5038367;28;20111;-79
2023/10/08 03:19:22;;;;;;;1.58;1.02;;;12.70;99.90;;;;;;5053590;28;20037;-79
2023/10/08 03:21:55;;;;;;;3.20;1.48;;;12.80;99.90;;;;;;5047294;28;20041;-79
2023/10/08 03:24:37;;;;;;;1.40;1.00;;;12.80;99.90;;;;;;5043643;28;20590;-79
2023/10/08 03:27:15;;;;;;;2.13;1.85;;;12.70;99.90;;;;;;5030415;28;20490;-78
2023/10/08 03:29:41;;;;;;;5.53;1.10;;;12.70;99.90;;;;;;5036542;28;20044;-79
2023/10/08 03:32:13;;;;;;;2.35;1.08;;;12.80;99.90;;;;;;5055463;28;20033;-79
2023/10/08 03:34:42;;;;;;;2.38;0.80;;;12.80;99.90;;;;;;5041242;28;20515;-79
2023/10/08 03:37:20;;;;;;;1.25;0.90;;;12.70;99.90;;;;;;5022730;28;20500;-79
2023/10/08 03:42:34;;;;;;;3.53;1.20;;;12.70;99.90;;;;;;5054259;28;20045;-79
2023/10/08 03:45:10;;;;;;;1.85;0.98;;;12.60;99.90;;;;;;5040092;28;20033;-79
2023/10/08 03:47:40;;;;;;;1.42;0.95;;;12.70;99.90;;;;;;5042627;28;20040;-79
2023/10/08 03:50:09;;;;;;;2.90;1.00;;;12.70;99.90;;;;;;5046051;28;20041;-79
2023/10/08 03:52:37;;;;;;;1.98;1.00;;;12.70;99.90;;;;;;5032025;28;20069;-79
2023/10/08 03:55:07;;;;;;;3.45;1.05;;;12.70;99.90;;;;;;5026345;28;20075;-78
2023/10/08 03:57:42;;;;;;;5.28;1.15;;;12.60;99.90;;;;;;5039856;28;20044;-79
2023/10/08 04:00:14;;;;;;;3.50;1.17;;;12.70;99.90;;;;;;5029910;28;20044;-79
2023/10/08 04:02:41;;;;;;;5.57;1.20;;;12.70;99.90;;;;;;5033725;28;20132;-79
2023/10/08 04:05:19;;;;;;;5.10;1.23;;;12.70;99.90;;;;;;5029122;28;20040;-80
2023/10/08 04:13:09;;;;;;;1.75;1.20;;;12.70;99.90;;;;;;5042775;28;20087;-80
2023/10/08 04:15:45;;;;;;;3.72;1.40;;;12.70;99.90;;;;;;5060493;28;20127;-79
2023/10/08 04:18:13;;;;;;;1.58;1.20;;;12.70;99.90;;;;;;5045539;28;20041;-78
2023/10/08 04:20:39;;;;;;;2.85;1.48;;;12.60;99.90;;;;;;5036777;28;20045;-78
2023/10/08 04:23:18;;;;;;;2.97;1.67;;;12.70;99.90;;;;;;5044243;28;20461;-78
2023/10/08 04:25:53;;;;;;;1.60;1.30;;;12.70;99.90;;;;;;5039199;28;20445;-79
2023/10/08 04:28:20;;;;;;;3.10;1.35;;;12.70;99.90;;;;;;5044406;28;20043;-79
2023/10/08 04:30:47;;;;;;;6.65;1.60;;;12.70;99.90;;;;;;5021701;28;20098;-80
2023/10/08 04:33:14;;;;;;;3.28;1.15;;;12.70;99.90;;;;;;5039129;28;20839;-79
2023/10/08 04:35:48;;;;;;;2.85;1.48;;;12.70;99.90;;;;;;5047527;28;20049;-79
2023/10/08 04:38:21;;;;;;;2.00;1.15;;;12.70;99.90;;;;;;5024445;28;20045;-79
2023/10/08 04:40:48;;;;;;;1.92;1.33;;;12.60;99.90;;;;;;5046101;28;20084;-78
2023/10/08 04:43:27;;;;;;;1.77;1.20;;;12.60;99.90;;;;;;5028624;28;20144;-80
2023/10/08 04:46:19;;;;;;;3.63;1.55;;;12.60;99.90;;;;;;5023990;28;20037;-79
2023/10/08 04:48:51;;;;;;;1.88;1.35;;;12.60;99.90;;;;;;5044523;28;20499;-79
2023/10/08 04:51:18;;;;;;;2.70;1.30;;;12.60;99.90;;;;;;5034290;28;20041;-79
2023/10/08 04:53:47;;;;;;;2.33;1.00;;;12.60;99.90;;;;;;5037247;28;20459;-78
2023/10/08 04:56:16;;;;;;;2.83;1.20;;;12.60;99.90;;;;;;5028118;28;20820;-80
2023/10/08 04:58:46;;;;;;;4.75;1.40;;;12.60;99.90;;;;;;5025605;28;20134;-79
2023/10/08 05:01:17;;;;;;;2.35;1.20;;;12.60;99.90;;;;;;5029683;28;20128;-79
2023/10/08 05:04:07;;;;;;;2.80;1.50;;;12.60;99.90;;;;;;5040519;28;20037;-79
2023/10/08 05:14:34;;;;;;;4.82;1.20;;;12.70;99.90;;;;;;5047193;28;20124;-79
2023/10/08 05:17:11;;;;;;;1.83;1.20;;;12.70;99.90;;;;;;5028628;28;20538;-79
2023/10/08 05:30:28;;;;;;;3.33;1.20;;;12.60;99.90;;;;;;5047907;28;20385;-80
2023/10/08 05:36:18;;;;;;;1.83;1.10;;;12.70;99.90;;;;;;5037489;28;20094;-80
2023/10/08 05:39:00;;;;;;;3.78;1.02;;;12.70;99.90;;;;;;5043539;28;20048;-80
2023/10/08 05:41:38;;;;;;;3.08;1.10;;;12.70;99.90;;;;;;5041725;28;20336;-80
2023/10/08 05:44:23;;;;;;;4.75;0.95;;;12.70;99.90;;;;;;5048728;28;20090;-80
2023/10/08 05:59:38;;;;;;;2.53;1.30;;;12.60;99.90;;;;;;5053080;28;20526;-80
2023/10/08 06:02:39;;;;;;;3.25;1.60;;;12.60;99.90;;;;;;5041142;28;20041;-80
2023/10/08 06:05:20;;;;;;;2.17;1.08;;;12.60;99.90;;;;;;5035806;28;20041;-80
2023/10/08 06:13:16;;;;;;;3.08;1.05;;;12.70;99.90;;;;;;5040101;28;20040;-81
2023/10/08 06:18:27;;;;;;;4.20;1.40;;;12.60;99.90;;;;;;5057813;28;20048;-80
2023/10/08 06:21:00;;;;;;;4.15;1.17;;;12.70;99.90;;;;;;5042119;28;20347;-81
2023/10/08 06:23:28;;;;;;;4.85;1.30;;;12.70;99.90;;;;;;5043502;28;20531;-81
2023/10/08 06:26:05;;;;;;;3.67;1.60;;;12.80;99.90;;;;;;5026182;28;20238;-82
2023/10/08 06:28:32;;;;;;;;;;;12.90;99.90;;;;;;5028483;28;20483;-81
2023/10/08 06:30:58;;;;;;;2.13;1.08;;;12.80;99.90;;;;;;5041929;28;19939;-82
2023/10/08 06:33:30;;;;;;;2.97;1.33;;;12.80;99.90;;;;;;5028493;28;20479;-76
2023/10/08 06:36:02;;;;;;;2.67;1.10;;;12.90;99.90;;;;;;5057226;28;20060;-81
2023/10/08 06:38:35;;;;;;;3.65;1.02;;;12.80;99.90;;;;;;5023840;28;20056;-81
2023/10/08 06:41:09;;;;;;;2.22;1.00;;;12.90;99.90;;;;;;5044404;28;20052;-81
2023/10/08 06:43:36;;;;;;;4.03;1.10;;;12.80;99.90;;;;;;5035717;28;20037;-81
2023/10/08 06:46:03;;;;;;;3.13;0.82;;;12.90;99.90;;;;;;5045378;28;20033;-81
2023/10/08 06:48:29;;;;;;;2.00;0.98;;;13.00;99.90;;;;;;5032659;28;20075;-81
2023/10/08 06:50:58;;;;;;;2.72;0.88;;;13.10;99.90;;;;;;5040729;28;20138;-81
2023/10/08 06:53:31;;;;;;;;;;;13.10;99.90;;;;;;5038605;28;20158;-81
2023/10/08 06:56:05;;;;;;;3.47;0.93;;;13.20;99.90;;;;;;5040294;28;19955;-81
2023/10/08 06:58:32;;;;;;;1.88;0.80;;;13.20;99.90;;;;;;5032653;28;20559;-81
2023/10/08 07:00:58;;;;;;;2.58;1.08;;;13.20;99.90;;;;;;5042913;28;20048;-81
2023/10/08 07:03:24;;;;;;;2.25;0.95;;;13.30;99.90;;;;;;5022142;28;20102;-81
2023/10/08 07:05:57;;;;;;;2.38;0.90;;;13.30;99.90;;;;;;5040763;28;20029;-81
2023/10/08 07:08:35;;;;;;;5.15;1.08;;;13.40;99.90;;;;;;5029741;28;20045;-82
2023/10/08 07:11:06;;;;;;;4.03;1.40;;;13.40;99.90;;;;;;5024594;28;20095;-81
2023/10/08 07:13:32;;;;;;;2.63;0.88;;;13.50;99.90;;;;;;5024878;28;20033;-81
2023/10/08 07:16:03;;;;;;;3.67;1.02;;;13.40;99.90;;;;;;5044145;28;20048;-81
2023/10/08 07:18:33;;;;;;;3.70;0.98;;;13.40;99.90;;;;;;5039035;28;20160;-80
2023/10/08 07:21:11;;;;;;;2.05;0.80;;;13.40;99.90;;;;;;5029211;28;20043;-81
2023/10/08 07:23:53;;;;;;;5.03;1.15;;;13.40;99.90;;;;;;5040040;28;20071;-81
2023/10/08 07:26:23;;;;;;;3.75;1.23;;;13.50;99.90;;;;;;5043794;28;20106;-82
2023/10/08 07:28:51;;;;;;;4.63;1.10;;;13.60;99.90;;;;;;5019538;28;20493;-81
2023/10/08 07:31:22;;;;;;;7.03;0.90;;;13.60;99.90;;;;;;5046936;28;20072;-82
2023/10/08 07:33:56;;;;;;;2.28;0.90;;;13.60;99.90;;;;;;5028299;28;20115;-80
2023/10/08 07:36:26;;;;;;;3.42;0.98;;;13.70;99.90;;;;;;5033289;28;20045;-81
2023/10/08 07:38:53;;;;;;;4.30;0.65;;;13.70;99.90;;;;;;5039108;28;20039;-81
2023/10/08 07:41:20;;;;;;;2.70;1.15;;;13.70;99.90;;;;;;5028961;28;20049;-81
2023/10/08 07:43:55;;;;;;;3.58;0.95;;;13.80;99.90;;;;;;5025372;28;20051;-81
2023/10/08 07:46:22;;;;;;;2.83;0.93;;;13.90;99.90;;;;;;5022238;28;20435;-81
2023/10/08 07:48:50;;;;;;;5.05;1.13;;;14.00;99.90;;;;;;5029878;28;20158;-81
2023/10/08 07:51:17;;;;;;;5.40;1.15;;;14.10;99.90;;;;;;5028404;28;20136;-81
2023/10/08 07:53:43;;;;;;;5.72;0.88;;;14.10;99.90;;;;;;5041334;28;20076;-80
2023/10/08 07:56:10;;;;;;;3.15;1.10;;;14.10;99.90;;;;;;5024756;28;20499;-81
2023/10/08 07:58:36;;;;;;;3.92;1.23;;;14.10;99.90;;;;;;5024049;28;20045;-81
2023/10/08 08:01:07;;;;;;;2.20;0.60;;;14.10;99.90;;;;;;5043025;28;20057;-80
2023/10/08 08:03:36;;;;;;;1.77;0.60;;;14.10;99.90;;;;;;5037571;28;20053;-81
2023/10/08 08:06:06;;;;;;;4.40;0.60;;;14.10;99.90;;;;;;5039879;28;20032;-80
2023/10/08 08:08:36;;;;;;;4.35;0.73;;;14.20;99.90;;;;;;5029283;28;20041;-81
2023/10/08 08:11:49;;;;;;;2.90;0.70;;;14.20;99.90;;;;;;5029234;28;20116;-80
2023/10/08 08:14:41;;;;;;;3.05;0.80;;;14.20;99.90;;;;;;5039429;28;20029;-80
2023/10/08 08:17:32;;;;;;;2.30;0.60;;;14.10;99.90;;;;;;5040711;28;20052;-81
2023/10/08 08:20:17;;;;;;;3.92;1.00;;;13.90;99.90;;;;;;5030703;28;20613;-81
2023/10/08 08:22:49;;;;;;;6.13;0.60;;;13.90;99.90;;;;;;5060732;28;20106;-81
2023/10/08 08:25:16;;;;;;;4.72;0.57;;;13.80;99.90;;;;;;5016895;28;20044;-80
2023/10/08 08:27:46;;;;;;;4.63;0.60;;;13.60;99.90;;;;;;5028657;28;20044;-81
2023/10/08 08:30:26;;;;;;;5.65;0.73;;;13.50;99.90;;;;;;5027223;28;20039;-80
2023/10/08 08:32:52;;;;;;;5.20;0.93;;;13.50;99.90;;;;;;5030130;28;20044;-80
2023/10/08 08:35:19;;;;;;;5.60;1.45;;;13.50;99.90;;;;;;5061484;28;20446;-81
2023/10/08 08:37:49;;;;;;;6.47;1.35;;;13.60;99.90;;;;;;5027509;28;20037;-81
2023/10/08 08:40:18;;;;;;;5.85;1.00;;;13.70;99.90;;;;;;5029299;28;20488;-80
2023/10/08 08:42:53;;;;;;;2.58;0.70;;;13.80;99.90;;;;;;5017074;28;20094;-81
2023/10/08 08:45:20;;;;;;;4.03;1.00;;;13.90;99.90;;;;;;5029318;28;20517;-80
2023/10/08 08:47:46;;;;;;;4.95;0.82;;;14.00;99.90;;;;;;5044123;28;20628;-81
2023/10/08 08:50:12;;;;;;;4.65;1.15;;;14.00;99.90;;;;;;5027622;28;20045;-81
2023/10/08 08:52:39;;;;;;;2.35;0.70;;;14.10;99.90;;;;;;5045126;28;20060;-81
2023/10/08 08:55:14;;;;;;;3.10;0.90;;;14.20;99.90;;;;;;5028169;28;20135;-81
2023/10/08 08:57:43;;;;;;;5.43;1.13;;;14.40;99.90;;;;;;5027909;28;20068;-80
2023/10/08 09:00:12;;;;;;;2.53;0.80;;;14.40;99.90;;;;;;5044672;28;20052;-81
2023/10/08 09:02:38;;;;;;;2.20;0.50;;;14.40;99.90;;;;;;5032832;28;20048;-80
2023/10/08 09:05:13;;;;;;;7.07;0.90;;;14.40;99.90;;;;;;5050954;28;20025;-81
2023/10/08 09:08:02;;;;;;;4.30;0.60;;;14.30;99.90;;;;;;5051341;28;20108;-80
2023/10/08 09:10:29;;;;;;;3.03;0.68;;;14.20;99.90;;;;;;5060343;28;20040;-80
2023/10/08 09:12:59;;;;;;;1.50;0.50;;;14.30;99.90;;;;;;5047855;28;20041;-80
2023/10/08 09:15:26;;;;;;;3.55;0.60;;;14.50;99.90;;;;;;5039207;28;20041;-79
2023/10/08 09:17:56;;;;;;;6.68;0.88;;;14.80;99.90;;;;;;5030331;28;20041;-81
2023/10/08 09:20:22;;;;;;;3.88;0.90;;;15.00;99.90;;;;;;5024552;28;20045;-81
2023/10/08 09:23:07;;;;;;;3.45;0.75;;;15.10;99.90;;;;;;5056752;28;20047;-82
2023/10/08 09:25:33;;;;;;;4.63;0.90;;;15.30;80.90;;;;;;5051963;28;20044;-80
2023/10/08 09:27:59;;;;;;;1.23;0.50;;;15.30;49.90;;;;;;5057198;28;20693;-82
2023/10/08 09:30:25;;;;;;;3.40;0.82;;;15.30;46.20;;;;;;5048549;28;20091;-81
2023/10/08 09:32:51;;;;;;;2.40;0.65;;;15.50;28.40;;;;;;5024143;28;20037;-81
2023/10/08 09:35:18;;;;;;;2.95;0.65;;;15.60;1.00;;;;;;5029027;28;20515;-79
2023/10/08 09:37:45;;;;;;;6.85;1.63;;;15.80;1.00;;;;;;5024073;28;20052;-79
2023/10/08 09:40:11;;;;;;;4.22;0.60;;;15.90;1.00;;;;;;5029126;28;20037;-80
2023/10/08 09:42:39;;;;;;;4.00;0.85;;;15.90;1.00;;;;;;5032780;28;20043;-80
2023/10/08 09:45:08;;;;;;;2.67;0.90;;;16.00;1.00;;;;;;5025164;28;20107;-81
2023/10/08 09:47:38;;;;;;;2.88;0.60;;;16.00;1.00;;;;;;5043635;28;20072;-80
2023/10/08 09:50:07;;;;;;;3.05;0.68;;;15.90;1.00;;;;;;5039143;28;20044;-79
2023/10/08 09:52:53;;;;;;;2.88;0.75;;;16.10;1.00;;;;;;5022935;28;20045;-79
2023/10/08 09:55:20;;;;;;;3.87;0.90;;;16.40;99.90;;;;;;5059689;28;20487;-80
2023/10/08 09:57:51;;;;;;;5.22;0.82;;;16.80;99.90;;;;;;5025330;28;20402;-79
2023/10/08 10:00:30;;;;;;;3.22;0.70;;;17.10;99.90;;;;;;5043953;28;20054;-79
2023/10/08 10:03:01;;;;;;;2.58;0.85;;;17.40;99.90;;;;;;5042255;28;20029;-79
2023/10/08 10:05:36;;;;;;;7.97;1.10;;;17.40;80.60;;;;;;5027696;28;20509;-79
2023/10/08 10:08:05;;;;;;;3.92;0.57;;;17.60;11.50;;;;;;5041539;28;20044;-79
2023/10/08 10:10:38;;;;;;;5.70;1.45;;;17.90;1.00;;;;;;5029042;28;20033;-79
2023/10/08 10:13:10;;;;;;;2.72;0.55;;;18.00;1.00;;;;;;5042001;28;20044;-79
2023/10/08 10:15:41;;;;;;;7.00;0.80;;;18.20;99.90;;;;;;5029903;28;20033;-79
2023/10/08 10:18:25;;;;;;;2.10;0.82;;;18.30;99.90;;;;;;5013806;28;20041;-79
2023/10/08 10:20:54;;;;;;;5.13;1.30;;;18.20;99.90;;;;;;5025494;28;20043;-79
2023/10/08 10:23:39;;;;;;;5.47;0.93;;;18.00;99.90;;;;;;5033107;28;20134;-79
2023/10/08 10:26:33;;;;;;;4.45;0.70;;;18.00;99.90;;;;;;5022381;28;20040;-79
2023/10/08 10:29:14;;;;;;;4.68;0.75;;;17.90;99.90;;;;;;5038960;28;20040;-79
2023/10/08 10:31:46;;;;;;;4.05;1.10;;;17.90;99.90;;;;;;5028428;28;20052;-79
2023/10/08 10:34:18;;;;;;;4.47;0.98;;;18.00;99.90;;;;;;5045917;28;20116;-78
2023/10/08 10:36:49;;;;;;;5.55;1.35;;;18.20;99.90;;;;;;5031044;28;20033;-78
2023/10/08 10:39:30;;;;;;;6.38;0.60;;;18.30;99.90;;;;;;5019708;28;20527;-79
2023/10/08 10:42:01;;;;;;;2.10;0.60;;;18.30;99.90;;;;;;5038367;28;20074;-79
2023/10/08 10:44:29;;;;;;;5.60;0.90;;;18.40;99.90;;;;;;5037239;28;20042;-78
2023/10/08 10:57:41;;;;;;;3.92;1.05;;;19.40;60.60;;;;;;5046910;28;20072;-78
2023/10/08 11:02:56;;;;;;;4.90;0.82;;;19.60;3.30;;;;;;5053443;28;20060;-79
2023/10/08 11:05:28;;;;;;;4.05;0.55;;;19.60;1.00;;;;;;5044846;28;20049;-79
2023/10/08 11:08:00;;;;;;;5.30;0.68;;;19.70;1.00;;;;;;5059575;28;20044;-78
2023/10/08 11:10:28;;;;;;;5.05;1.08;;;19.70;1.00;;;;;;5038331;28;20029;-79
2023/10/08 11:12:54;;;;;;;5.30;0.60;;;19.70;1.00;;;;;;5043040;28;20464;-79
2023/10/08 11:15:23;;;;;;;4.05;1.27;;;19.80;1.00;;;;;;5040573;28;20126;-78
2023/10/08 11:17:50;;;;;;;4.13;0.70;;;19.80;1.00;;;;;;5041059;28;20044;-78
2023/10/08 11:20:29;;;;;;;4.10;0.65;;;20.00;1.00;;;;;;5041790;28;20065;-77
2023/10/08 11:22:55;;;;;;;2.95;1.00;;;20.40;1.00;;;;;;5038005;28;20384;-78
2023/10/08 11:25:30;;;;;;;2.83;0.70;;;20.70;1.00;;;;;;5028146;28;20036;-79
2023/10/08 11:28:08;;;;;;;2.17;0.80;;;20.90;1.00;;;;;;5032027;28;20029;-79
2023/10/08 11:30:35;;;;;;;5.00;0.57;;;21.00;1.00;;;;;;5044274;28;20082;-79
2023/10/08 11:33:01;;;;;;;2.88;0.70;;;21.20;1.00;;;;;;5042568;28;20049;-80
2023/10/08 11:35:33;;;;;;;4.85;0.90;;;21.30;1.00;;;;;;5044849;28;20036;-79
2023/10/08 11:38:03;;;;;;;2.80;0.82;;;21.30;1.00;;;;;;5028749;28;20517;-78
2023/10/08 11:40:29;;;;;;;5.97;0.80;;;21.40;1.00;;;;;;5056034;28;20037;-78
2023/10/08 11:43:03;;;;;;;5.90;0.68;;;21.30;1.00;;;;;;5038559;28;20044;-78
2023/10/08 11:45:38;;;;;;;3.10;0.65;;;21.40;1.00;;;;;;5054604;28;20048;-79
2023/10/08 11:48:11;;;;;;;5.43;1.27;;;21.20;1.00;;;;;;5043860;28;20093;-80
2023/10/08 11:50:40;;;;;;;3.45;0.95;;;21.00;1.00;;;;;;5038715;28;20166;-81
2023/10/08 11:53:11;;;;;;;5.32;0.70;;;20.90;1.00;;;;;;5024080;28;20065;-81
2023/10/08 11:55:38;;;;;;;4.43;0.70;;;20.90;1.00;;;;;;5038230;28;20051;-81
2023/10/08 11:58:11;;;;;;;2.63;0.70;;;21.10;1.00;;;;;;5022653;28;20030;-82
2023/10/08 12:00:45;;;;;;;4.90;0.98;;;21.10;1.00;;;;;;5037087;28;20053;-81
2023/10/08 12:03:12;;;;;;;6.40;0.77;;;21.00;1.00;;;;;;5033571;28;20045;-82
2023/10/08 12:05:47;;;;;;;2.90;0.70;;;21.00;1.00;;;;;;5024609;28;20041;-81
2023/10/08 12:08:17;;;;;;;4.68;0.82;;;21.30;1.00;;;;;;5022960;28;20523;-82
2023/10/08 12:10:46;;;;;;;4.07;0.90;;;21.40;1.00;;;;;;5028649;28;20069;-81
2023/10/08 12:13:12;;;;;;;4.82;0.68;;;21.50;1.00;;;;;;5032673;28;20564;-81
2023/10/08 12:15:38;;;;;;;5.05;0.88;;;21.60;1.00;;;;;;5033549;28;20415;-82
2023/10/08 12:18:08;;;;;;;1.80;0.63;;;21.90;1.00;;;;;;5021959;28;20041;-82
2023/10/08 12:20:38;;;;;;;3.70;0.70;;;22.00;1.00;;;;;;5023995;28;20407;-81
2023/10/08 12:23:05;;;;;;;5.45;0.75;;;22.00;1.00;;;;;;5033818;28;20109;-82
2023/10/08 12:25:32;;;;;;;3.88;0.68;;;21.90;1.00;;;;;;5040397;28;20037;-82
2023/10/08 12:28:04;;;;;;;4.13;0.70;;;21.70;1.00;;;;;;5045963;28;20041;-81
2023/10/08 12:30:31;;;;;;;2.88;0.50;;;21.40;1.00;;;;;;5029200;28;20037;-81
2023/10/08 12:32:58;;;;;;;4.28;0.63;;;21.20;1.00;;;;;;5037772;28;20041;-82
2023/10/08 12:35:24;;;;;;;3.35;0.82;;;21.00;1.00;;;;;;5026386;28;20041;-81
2023/10/08 12:37:50;;;;;;;7.10;0.90;;;21.00;1.00;;;;;;5043076;28;20663;-82
2023/10/08 12:40:31;;;;;;;2.40;0.73;;;21.10;1.00;;;;;;5045100;28;20044;-82
2023/10/08 12:42:58;;;;;;;3.00;0.93;;;21.00;1.00;;;;;;5035532;28;20120;-82
2023/10/08 12:45:27;;;;;;;2.65;0.60;;;20.90;1.00;;;;;;5027040;28;20094;-82
2023/10/08 12:47:53;;;;;;;1.73;0.60;;;21.00;1.00;;;;;;5028098;28;20491;-81
2023/10/08 12:53:04;;;;;;;3.95;1.02;;;22.20;1.00;;;;;;5036431;28;20071;-80
2023/10/08 12:55:39;;;;;;;3.40;0.85;;;22.60;1.00;;;;;;5056783;28;20048;-81
2023/10/08 12:58:10;;;;;;;3.60;0.60;;;23.00;1.00;;;;;;5041260;28;20040;-81
2023/10/08 13:00:41;;;;;;;3.83;0.90;;;23.30;1.00;;;;;;5028236;28;20727;-82
2023/10/08 13:03:22;;;;;;;3.95;1.23;;;23.60;1.00;;;;;;5026016;28;21569;-81
2023/10/08 13:05:52;;;;;;;3.63;0.47;;;24.30;1.00;;;;;;5040993;28;20041;-81
2023/10/08 13:08:21;;;;;;;4.72;0.90;;;25.00;1.00;;;;;;5024245;28;20063;-81
2023/10/08 13:10:51;;;;;;;4.45;0.82;;;25.60;1.00;;;;;;5020611;28;20041;-81
2023/10/08 13:13:18;;;;;;;5.20;0.70;;;25.90;1.00;;;;;;5031409;28;20114;-81
2023/10/08 13:15:44;;;;;;;3.22;0.82;;;25.20;1.00;;;;;;5025999;28;20091;-81
2023/10/08 13:18:10;;;;;;;5.18;0.75;;;24.60;1.00;;;;;;5029629;28;20052;-82
2023/10/08 13:20:36;;;;;;;2.17;0.63;;;24.80;1.00;;;;;;5040225;28;20123;-82
2023/10/08 13:23:04;;;;;;;3.25;0.60;;;25.30;1.00;;;;;;5037172;28;20287;-81
2023/10/08 13:25:33;;;;;;;3.22;0.50;;;25.60;1.00;;;;;;5051057;28;20073;-81
2023/10/08 13:28:00;;;;;;;3.72;0.82;;;25.10;1.00;;;;;;5045860;28;20047;-81
2023/10/08 13:30:27;;;;;;;2.00;0.50;;;24.20;1.00;;;;;;5026570;28;20069;-81
2023/10/08 13:32:55;;;;;;;3.10;0.68;;;23.30;1.00;;;;;;5047802;28;20056;-81
2023/10/08 13:35:21;;;;;;;3.75;0.70;;;22.60;1.00;;;;;;5019992;28;20179;-81
2023/10/08 13:37:48;;;;;;;3.50;0.60;;;21.90;1.00;;;;;;5026630;28;20049;-81
2023/10/08 13:40:15;;;;;;;5.00;0.70;;;21.50;1.00;;;;;;5029508;28;20837;-81
2023/10/08 13:42:42;;;;;;;4.68;0.70;;;21.20;1.00;;;;;;5029250;28;20037;-81
2023/10/08 13:45:09;;;;;;;7.57;1.15;;;20.80;1.00;;;;;;5046797;28;20107;-81
2023/10/08 13:47:35;;;;;;;5.97;0.85;;;20.50;1.00;;;;;;5020271;28;20048;-81
2023/10/08 13:50:10;;;;;;;5.22;0.70;;;20.30;1.00;;;;;;5044332;28;20394;-80
2023/10/08 13:52:38;;;;;;;2.50;0.60;;;20.00;1.00;;;;;;5029434;28;20057;-81
2023/10/08 13:55:06;;;;;;;3.38;0.60;;;19.70;1.00;;;;;;5049730;28;20041;-81
2023/10/08 13:57:33;;;;;;;5.18;1.30;;;19.50;1.00;;;;;;5045365;28;20056;-82
2023/10/08 14:00:01;;;;;;;3.72;0.75;;;19.30;1.00;;;;;;5062899;28;20047;-81
2023/10/08 14:02:30;;;;;;;4.05;0.90;;;19.20;1.00;;;;;;5029372;28;20043;-81
2023/10/08 14:04:57;;;;;;;3.20;0.70;;;19.20;1.00;;;;;;5047688;28;20033;-81
2023/10/08 14:07:24;;;;;;;2.63;0.70;;;19.10;1.00;;;;;;5039606;28;20116;-81
2023/10/08 14:09:50;;;;;;;6.70;1.27;;;19.10;1.00;;;;;;5032988;28;20120;-82
2023/10/08 14:12:16;;;;;;;4.35;1.08;;;19.00;1.00;;;;;;5044929;28;20143;-81
2023/10/08 14:14:46;;;;;;;5.30;1.38;;;18.90;1.00;;;;;;5030597;28;20136;-81
2023/10/08 14:17:15;;;;;;;6.00;1.33;;;18.90;1.00;;;;;;5028891;28;20077;-81
2023/10/08 14:19:51;;;;;;;4.05;1.20;;;18.90;1.00;;;;;;5042993;28;20136;-81